createdAt,value
2022-08-29T00:00:21.337Z,98445.44
2022-08-29T00:01:25.527Z,98440.97
2022-08-29T00:02:30.112Z,98443.81
2022-08-29T00:03:35.843Z,98443.59
2022-08-29T00:04:40.173Z,98439.16
2022-08-29T00:05:43.394Z,98449.56
2022-08-29T00:06:54.937Z,98450.41
2022-08-29T00:08:05.248Z,98449.38
2022-08-29T00:09:08.742Z,98449.56
2022-08-29T00:10:13.041Z,98445.09
2022-08-29T00:11:16.267Z,98449.56
2022-08-29T00:12:21.282Z,98445.28
2022-08-29T00:13:25.669Z,98447.09
2022-08-29T00:14:37.901Z,98443.59
2022-08-29T00:15:45.130Z,98444.63
2022-08-29T00:16:49.818Z,98436.88
2022-08-29T00:17:53.405Z,98451.13
2022-08-29T00:18:58.406Z,98448.66
2022-08-29T00:20:05.835Z,98441.72
2022-08-29T00:21:10.403Z,98440.91
2022-08-29T00:22:13.969Z,98446.19
2022-08-29T00:23:20.709Z,98439.06
2022-08-29T00:24:24.339Z,98448.66
2022-08-29T00:25:29.340Z,98443.19
2022-08-29T00:26:33.061Z,98445.00
2022-08-29T00:27:37.781Z,98442.38
2022-08-29T00:28:41.070Z,98448.66
2022-08-29T00:29:45.821Z,98438.09
2022-08-29T00:30:49.860Z,98445.00
2022-08-29T00:31:54.639Z,98444.19
2022-08-29T00:32:58.308Z,98449.50
2022-08-29T00:34:02.647Z,98450.31
2022-08-29T00:35:08.519Z,98440.53
2022-08-29T00:36:13.297Z,98446.84
2022-08-29T00:37:16.585Z,98442.38
2022-08-29T00:38:27.813Z,98439.72
2022-08-29T00:39:32.969Z,98444.81
2022-08-29T00:40:42.345Z,98444.38
2022-08-29T00:41:48.429Z,98439.06
2022-08-29T00:42:53.004Z,98435.44
2022-08-29T00:43:56.400Z,98429.97
2022-08-29T00:45:01.184Z,98434.25
2022-08-29T00:46:25.698Z,98438.31
2022-08-29T00:47:33.285Z,98441.16
2022-08-29T00:48:38.611Z,98439.34
2022-08-29T00:49:46.533Z,98436.53
2022-08-29T00:50:55.346Z,98438.31
2022-08-29T00:52:00.931Z,98439.34
2022-08-29T00:53:06.999Z,98434.03
2022-08-29T00:54:12.831Z,98446.25
2022-08-29T00:55:24.604Z,98440.97
2022-08-29T00:56:28.719Z,98440.97
2022-08-29T00:57:35.047Z,98439.97
2022-08-29T00:58:43.640Z,98437.34
2022-08-29T00:59:51.677Z,98433.88
2022-08-29T01:00:55.821Z,98439.97
2022-08-29T01:02:00.954Z,98438.31
2022-08-29T01:03:05.690Z,98434.03
2022-08-29T01:04:15.645Z,98444.44
2022-08-29T01:05:28.411Z,98435.69
2022-08-29T01:06:32.903Z,98439.81
2022-08-29T01:07:37.975Z,98439.97
2022-08-29T01:08:44.946Z,98442.47
2022-08-29T01:09:50.921Z,98441.66
2022-08-29T01:11:12.787Z,98445.91
2022-08-29T01:12:16.783Z,98440.97
2022-08-29T01:13:21.057Z,98443.59
2022-08-29T01:14:28.042Z,98439.34
2022-08-29T01:15:32.341Z,98446.44
2022-08-29T01:16:39.077Z,98442.78
2022-08-29T01:17:45.938Z,98435.69
2022-08-29T01:19:01.419Z,98442.78
2022-08-29T01:20:12.505Z,98439.34
2022-08-29T01:21:20.960Z,98443.59
2022-08-29T01:22:43.252Z,98448.28
2022-08-29T01:24:01.477Z,98439.72
2022-08-29T01:25:11.728Z,98453.13
2022-08-29T01:26:23.970Z,98444.38
2022-08-29T01:27:31.760Z,98448.03
2022-08-29T01:28:38.598Z,98448.66
2022-08-29T01:29:41.957Z,98446.84
2022-08-29T01:31:03.458Z,98442.53
2022-08-29T01:32:32.303Z,98448.22
2022-08-29T01:33:42.489Z,98456.34
2022-08-29T01:34:48.541Z,98447.41
2022-08-29T01:35:53.141Z,98445.78
2022-08-29T01:36:58.082Z,98452.84
2022-08-29T01:38:02.761Z,98446.75
2022-08-29T01:39:06.373Z,98453.88
2022-08-29T01:40:15.896Z,98453.69
2022-08-29T01:41:21.222Z,98452.84
2022-08-29T01:42:26.356Z,98451.22
2022-08-29T01:43:31.849Z,98452.03
2022-08-29T01:44:43.643Z,98453.06
2022-08-29T01:45:47.533Z,98459.16
2022-08-29T01:46:57.961Z,98457.53
2022-08-29T01:48:06.678Z,98454.25
2022-08-29T01:49:11.485Z,98457.88
2022-08-29T01:50:17.087Z,98462.34
2022-08-29T01:51:20.721Z,98458.72
2022-08-29T01:52:25.549Z,98466.66
2022-08-29T01:53:29.456Z,98462.34
2022-08-29T01:54:34.526Z,98470.13
2022-08-29T01:55:39.594Z,98469.31
2022-08-29T01:56:45.868Z,98469.31
2022-08-29T01:57:51.594Z,98470.13
2022-08-29T01:59:22.945Z,98471.09
2022-08-29T02:00:26.387Z,98472.78
2022-08-29T02:01:34.683Z,98478.69
2022-08-29T02:02:38.777Z,98479.50
2022-08-29T02:03:54.687Z,98473.03
2022-08-29T02:05:09.244Z,98477.50
2022-08-29T02:06:13.030Z,98468.91
2022-08-29T02:07:19.049Z,98473.59
2022-08-29T02:08:22.488Z,98472.94
2022-08-29T02:09:28.003Z,98470.47
2022-08-29T02:10:32.183Z,98471.50
2022-08-29T02:11:40.136Z,98470.69
2022-08-29T02:12:44.981Z,98466.41
2022-08-29T02:13:50.643Z,98476.13
2022-08-29T02:14:56.093Z,98472.66
2022-08-29T02:16:00.202Z,98471.03
2022-08-29T02:17:05.757Z,98477.78
2022-08-29T02:18:09.481Z,98473.47
2022-08-29T02:19:14.960Z,98476.97
2022-08-29T02:20:18.834Z,98474.34
2022-08-29T02:21:28.527Z,98477.97
2022-08-29T02:22:34.464Z,98473.69
2022-08-29T02:23:39.799Z,98481.00
2022-08-29T02:24:43.372Z,98476.72
2022-08-29T02:25:50.157Z,98482.00
2022-08-29T02:26:55.791Z,98476.88
2022-08-29T02:28:00.403Z,98472.41
2022-08-29T02:29:07.810Z,98481.16
2022-08-29T02:30:15.501Z,98482.97
2022-08-29T02:31:19.949Z,98480.34
2022-08-29T02:32:28.359Z,98484.66
2022-08-29T02:33:35.361Z,98477.69
2022-08-29T02:34:47.884Z,98473.22
2022-08-29T02:35:52.728Z,98483.44
2022-08-29T02:36:57.438Z,98480.59
2022-08-29T02:38:01.128Z,98482.44
2022-08-29T02:39:07.279Z,98481.81
2022-08-29T02:40:12.231Z,98491.56
2022-08-29T02:41:26.727Z,98482.63
2022-08-29T02:42:32.143Z,98486.91
2022-08-29T02:43:37.622Z,98490.19
2022-08-29T02:44:41.687Z,98481.25
2022-08-29T02:45:46.850Z,98491.81
2022-08-29T02:46:50.740Z,98490.00
2022-08-29T02:47:55.595Z,98492.66
2022-08-29T02:49:00.869Z,98484.72
2022-08-29T02:50:06.606Z,98492.84
2022-08-29T02:51:13.729Z,98485.88
2022-08-29T02:52:18.382Z,98486.28
2022-08-29T02:53:31.355Z,98486.63
2022-08-29T02:54:36.664Z,98493.94
2022-08-29T02:55:42.843Z,98487.84
2022-08-29T02:56:47.830Z,98492.94
2022-08-29T02:57:54.156Z,98497.22
2022-08-29T02:59:06.604Z,98489.09
2022-08-29T03:00:17.527Z,98488.91
2022-08-29T03:01:24.337Z,98495.22
2022-08-29T03:02:28.300Z,98488.91
2022-08-29T03:03:34.401Z,98495.84
2022-08-29T03:04:38.459Z,98498.47
2022-08-29T03:05:44.580Z,98500.13
2022-08-29T03:06:47.858Z,98494.00
2022-08-29T03:07:53.007Z,98493.41
2022-08-29T03:08:56.867Z,98489.94
2022-08-29T03:10:01.429Z,98491.91
2022-08-29T03:11:06.190Z,98495.56
2022-08-29T03:12:10.821Z,98493.94
2022-08-29T03:13:15.666Z,98496.75
2022-08-29T03:14:20.428Z,98489.00
2022-08-29T03:15:24.605Z,98491.03
2022-08-29T03:16:29.917Z,98485.28
2022-08-29T03:17:34.054Z,98493.41
2022-08-29T03:18:38.718Z,98494.41
2022-08-29T03:19:42.378Z,98496.25
2022-08-29T03:21:23.160Z,98509.28
2022-08-29T03:22:35.734Z,98508.63
2022-08-29T03:23:40.563Z,98503.53
2022-08-29T03:24:44.168Z,98502.69
2022-08-29T03:25:49.439Z,98505.34
2022-08-29T03:27:28.968Z,98514.47
2022-08-29T03:28:33.985Z,98506.72
2022-08-29T03:29:39.112Z,98505.88
2022-08-29T03:30:43.338Z,98509.53
2022-08-29T03:31:48.707Z,98508.72
2022-08-29T03:32:52.897Z,98509.34
2022-08-29T03:33:58.005Z,98510.16
2022-08-29T03:35:02.167Z,98517.28
2022-08-29T03:36:13.031Z,98512.00
2022-08-29T03:37:18.181Z,98518.09
2022-08-29T03:38:23.347Z,98519.31
2022-08-29T03:39:26.608Z,98519.31
2022-08-29T03:40:30.973Z,98516.84
2022-08-29T03:41:34.958Z,98524.94
2022-08-29T03:42:39.140Z,98520.47
2022-08-29T03:43:44.300Z,98522.28
2022-08-29T03:44:49.277Z,98521.66
2022-08-29T03:45:52.442Z,98524.13
2022-08-29T03:46:56.977Z,98525.94
2022-08-29T03:48:00.224Z,98523.31
2022-08-29T03:49:05.769Z,98537.53
2022-08-29T03:50:10.766Z,98530.59
2022-08-29T03:51:15.489Z,98529.78
2022-08-29T03:52:18.817Z,98534.06
2022-08-29T03:53:23.814Z,98532.44
2022-08-29T03:54:27.918Z,98530.94
2022-08-29T03:55:32.211Z,98528.31
2022-08-29T03:56:36.381Z,98530.13
2022-08-29T03:57:40.911Z,98529.31
2022-08-29T03:58:48.099Z,98534.41
2022-08-29T03:59:58.247Z,98525.47
2022-08-29T04:01:02.342Z,98522.84
2022-08-29T04:02:06.949Z,98524.66
2022-08-29T04:03:10.443Z,98534.22
2022-08-29T04:04:34.952Z,98532.44
2022-08-29T04:05:38.381Z,98528.13
2022-08-29T04:06:44.358Z,98524.50
2022-08-29T04:07:49.481Z,98532.59
2022-08-29T04:08:53.729Z,98534.41
2022-08-29T04:09:56.958Z,98531.97
2022-08-29T04:11:01.163Z,98537.88
2022-08-29T04:12:04.921Z,98538.53
2022-08-29T04:13:09.991Z,98538.53
2022-08-29T04:14:15.234Z,98540.16
2022-08-29T04:15:20.064Z,98544.78
2022-08-29T04:16:25.451Z,98551.75
2022-08-29T04:17:35.919Z,98543.81
2022-08-29T04:18:39.201Z,98546.47
2022-08-29T04:19:43.478Z,98552.09
2022-08-29T04:20:46.607Z,98548.00
2022-08-29T04:21:51.101Z,98551.63
2022-08-29T04:22:56.576Z,98556.75
2022-08-29T04:24:00.150Z,98557.56
2022-08-29T04:25:05.544Z,98557.56
2022-08-29T04:26:35.523Z,98564.50
2022-08-29T04:27:38.992Z,98567.13
2022-08-29T04:28:42.220Z,98564.69
2022-08-29T04:29:48.841Z,98568.97
2022-08-29T04:30:54.217Z,98567.94
2022-08-29T04:31:57.508Z,98572.41
2022-08-29T04:33:01.819Z,98571.59
2022-08-29T04:34:06.569Z,98567.94
2022-08-29T04:35:12.936Z,98575.88
2022-08-29T04:36:17.222Z,98581.97
2022-08-29T04:37:21.621Z,98581.78
2022-08-29T04:38:25.349Z,98583.44
2022-08-29T04:39:30.208Z,98579.34
2022-08-29T04:40:34.745Z,98578.53
2022-08-29T04:41:39.730Z,98585.44
2022-08-29T04:42:43.420Z,98585.44
2022-08-29T04:43:47.881Z,98586.91
2022-08-29T04:44:52.713Z,98590.38
2022-08-29T04:45:57.068Z,98595.28
2022-08-29T04:47:00.417Z,98590.00
2022-08-29T04:48:05.659Z,98590.84
2022-08-29T04:49:09.583Z,98592.63
2022-08-29T04:50:16.406Z,98592.00
2022-08-29T04:51:19.770Z,98590.38
2022-08-29T04:52:24.387Z,98595.66
2022-08-29T04:53:29.128Z,98592.00
2022-08-29T04:54:33.651Z,98603.41
2022-08-29T04:55:38.210Z,98592.81
2022-08-29T04:56:47.109Z,98604.22
2022-08-29T04:57:53.247Z,98609.50
2022-08-29T04:58:56.318Z,98608.69
2022-08-29T05:00:02.012Z,98609.50
2022-08-29T05:01:06.010Z,98607.03
2022-08-29T05:02:10.221Z,98606.22
2022-08-29T05:03:13.415Z,98617.81
2022-08-29T05:04:17.793Z,98622.09
2022-08-29T05:05:21.043Z,98615.97
2022-08-29T05:06:26.377Z,98620.25
2022-08-29T05:07:30.123Z,98627.19
2022-08-29T05:08:37.935Z,98632.28
2022-08-29T05:09:42.740Z,98631.13
2022-08-29T05:10:48.119Z,98628.13
2022-08-29T05:11:53.493Z,98624.47
2022-08-29T05:12:56.835Z,98620.00
2022-08-29T05:14:02.729Z,98624.47
2022-08-29T05:15:08.694Z,98627.94
2022-08-29T05:16:14.297Z,98626.94
2022-08-29T05:17:17.830Z,98626.72
2022-08-29T05:18:23.390Z,98627.56
2022-08-29T05:19:26.528Z,98624.56
2022-08-29T05:20:31.888Z,98631.94
2022-08-29T05:21:37.017Z,98632.22
2022-08-29T05:22:42.547Z,98631.84
2022-08-29T05:23:45.969Z,98627.84
2022-08-29T05:24:50.957Z,98633.41
2022-08-29T05:25:56.219Z,98635.16
2022-08-29T05:27:00.357Z,98635.88
2022-08-29T05:28:04.229Z,98635.81
2022-08-29T05:29:10.254Z,98629.59
2022-08-29T05:30:19.917Z,98640.28
2022-08-29T05:31:41.267Z,98637.69
2022-08-29T05:32:44.757Z,98634.50
2022-08-29T05:33:49.105Z,98634.78
2022-08-29T05:34:52.331Z,98631.19
2022-08-29T05:35:56.687Z,98633.09
2022-08-29T05:36:59.899Z,98638.66
2022-08-29T05:38:14.757Z,98634.00
2022-08-29T05:39:40.203Z,98638.53
2022-08-29T05:40:43.636Z,98641.44
2022-08-29T05:41:47.882Z,98640.69
2022-08-29T05:42:51.129Z,98646.63
2022-08-29T05:43:56.335Z,98637.66
2022-08-29T05:45:08.551Z,98647.25
2022-08-29T05:46:14.612Z,98647.88
2022-08-29T05:47:27.320Z,98642.16
2022-08-29T05:48:32.593Z,98645.97
2022-08-29T05:49:38.192Z,98640.06
2022-08-29T05:50:42.079Z,98636.78
2022-08-29T05:51:46.220Z,98641.06
2022-08-29T05:52:49.755Z,98641.25
2022-08-29T05:53:54.187Z,98640.25
2022-08-29T05:54:57.360Z,98646.16
2022-08-29T05:56:02.008Z,98641.31
2022-08-29T05:57:06.184Z,98645.06
2022-08-29T05:58:10.634Z,98650.41
2022-08-29T05:59:14.288Z,98649.50
2022-08-29T06:00:19.317Z,98651.00
2022-08-29T06:01:26.250Z,98654.72
2022-08-29T06:02:31.316Z,98652.31
2022-08-29T06:03:34.773Z,98655.22
2022-08-29T06:04:39.447Z,98653.81
2022-08-29T06:05:42.898Z,98652.63
2022-08-29T06:06:48.759Z,98658.34
2022-08-29T06:07:52.027Z,98654.97
2022-08-29T06:08:57.003Z,98657.00
2022-08-29T06:10:03.804Z,98658.72
2022-08-29T06:11:15.869Z,98657.56
2022-08-29T06:12:20.796Z,98662.72
2022-08-29T06:13:28.691Z,98666.66
2022-08-29T06:14:32.649Z,98664.28
2022-08-29T06:15:37.218Z,98675.13
2022-08-29T06:16:43.218Z,98668.19
2022-08-29T06:17:46.757Z,98682.66
2022-08-29T06:18:51.350Z,98675.09
2022-08-29T06:19:54.626Z,98680.38
2022-08-29T06:20:59.188Z,98676.31
2022-08-29T06:22:03.587Z,98678.28
2022-08-29T06:23:14.934Z,98687.84
2022-08-29T06:24:18.067Z,98687.78
2022-08-29T06:25:38.407Z,98688.75
2022-08-29T06:26:43.387Z,98687.03
2022-08-29T06:27:47.779Z,98694.28
2022-08-29T06:28:52.097Z,98686.28
2022-08-29T06:29:58.186Z,98700.25
2022-08-29T06:31:10.164Z,98693.06
2022-08-29T06:32:15.076Z,98695.72
2022-08-29T06:33:19.427Z,98700.81
2022-08-29T06:34:25.569Z,98694.78
2022-08-29T06:35:30.223Z,98698.13
2022-08-29T06:36:34.107Z,98709.22
2022-08-29T06:37:43.066Z,98699.19
2022-08-29T06:38:46.422Z,98708.28
2022-08-29T06:39:51.006Z,98704.38
2022-08-29T06:40:54.317Z,98711.56
2022-08-29T06:41:58.811Z,98711.59
2022-08-29T06:43:02.052Z,98709.59
2022-08-29T06:44:06.926Z,98700.41
2022-08-29T06:45:11.393Z,98707.34
2022-08-29T06:46:22.663Z,98704.53
2022-08-29T06:47:28.447Z,98715.13
2022-08-29T06:48:32.001Z,98703.72
2022-08-29T06:49:36.403Z,98707.06
2022-08-29T06:50:43.621Z,98715.25
2022-08-29T06:51:56.950Z,98715.72
2022-08-29T06:53:31.556Z,98722.72
2022-08-29T06:54:28.033Z,98725.56
2022-08-29T06:55:31.564Z,98721.50
2022-08-29T06:56:37.444Z,98722.75
2022-08-29T06:57:45.633Z,98726.84
2022-08-29T06:58:48.907Z,98725.88
2022-08-29T06:59:53.279Z,98720.56
2022-08-29T07:00:56.710Z,98715.09
2022-08-29T07:02:03.453Z,98725.34
2022-08-29T07:03:08.915Z,98723.97
2022-08-29T07:04:14.866Z,98723.13
2022-08-29T07:05:23.523Z,98726.97
2022-08-29T07:06:34.398Z,98728.38
2022-08-29T07:07:38.932Z,98728.13
2022-08-29T07:08:55.099Z,98735.03
2022-08-29T07:10:00.317Z,98724.88
2022-08-29T07:11:03.716Z,98725.03
2022-08-29T07:12:08.483Z,98730.03
2022-08-29T07:13:12.515Z,98728.63
2022-08-29T07:14:17.090Z,98732.59
2022-08-29T07:15:24.881Z,98728.03
2022-08-29T07:16:41.510Z,98725.31
2022-08-29T07:17:44.988Z,98730.53
2022-08-29T07:18:52.438Z,98726.63
2022-08-29T07:19:57.049Z,98731.06
2022-08-29T07:21:00.267Z,98736.13
2022-08-29T07:22:04.668Z,98735.44
2022-08-29T07:23:08.848Z,98734.00
2022-08-29T07:24:14.549Z,98742.13
2022-08-29T07:25:20.417Z,98735.50
2022-08-29T07:26:25.835Z,98737.84
2022-08-29T07:27:30.850Z,98737.66
2022-08-29T07:28:35.184Z,98751.75
2022-08-29T07:29:42.629Z,98741.38
2022-08-29T07:30:45.966Z,98748.06
2022-08-29T07:31:50.916Z,98750.38
2022-08-29T07:32:54.688Z,98752.06
2022-08-29T07:34:02.043Z,98754.31
2022-08-29T07:35:11.581Z,98755.94
2022-08-29T07:36:17.892Z,98756.56
2022-08-29T07:37:22.230Z,98749.22
2022-08-29T07:38:25.521Z,98755.41
2022-08-29T07:39:29.956Z,98758.31
2022-08-29T07:40:33.254Z,98751.72
2022-08-29T07:41:37.638Z,98771.84
2022-08-29T07:42:41.037Z,98766.31
2022-08-29T07:43:45.690Z,98769.44
2022-08-29T07:44:48.758Z,98763.47
2022-08-29T07:45:52.983Z,98755.09
2022-08-29T07:46:57.888Z,98759.00
2022-08-29T07:48:01.172Z,98758.63
2022-08-29T07:49:07.330Z,98770.28
2022-08-29T07:50:12.341Z,98762.88
2022-08-29T07:51:18.951Z,98772.91
2022-08-29T07:52:22.178Z,98769.00
2022-08-29T07:53:26.674Z,98763.66
2022-08-29T07:54:30.916Z,98759.94
2022-08-29T07:55:34.250Z,98764.03
2022-08-29T07:56:42.742Z,98758.88
2022-08-29T07:57:48.696Z,98759.69
2022-08-29T07:58:53.259Z,98756.22
2022-08-29T07:59:57.457Z,98762.78
2022-08-29T08:01:00.625Z,98758.31
2022-08-29T08:02:05.293Z,98753.41
2022-08-29T08:03:11.407Z,98749.28
2022-08-29T08:04:17.267Z,98752.34
2022-08-29T08:05:22.608Z,98748.94
2022-08-29T08:06:28.819Z,98753.34
2022-08-29T08:07:35.646Z,98751.34
2022-08-29T08:08:43.687Z,98750.34
2022-08-29T08:09:48.759Z,98757.78
2022-08-29T08:10:52.619Z,98751.88
2022-08-29T08:11:56.968Z,98741.22
2022-08-29T08:13:00.257Z,98755.06
2022-08-29T08:14:05.459Z,98755.25
2022-08-29T08:15:10.503Z,98751.97
2022-08-29T08:16:15.997Z,98748.66
2022-08-29T08:17:20.638Z,98759.38
2022-08-29T08:18:25.939Z,98751.16
2022-08-29T08:19:31.617Z,98762.03
2022-08-29T08:20:34.959Z,98764.84
2022-08-29T08:21:46.944Z,98761.50
2022-08-29T08:22:54.494Z,98759.31
2022-08-29T08:23:57.727Z,98756.16
2022-08-29T08:25:01.963Z,98760.94
2022-08-29T08:26:05.600Z,98765.84
2022-08-29T08:27:09.765Z,98766.53
2022-08-29T08:28:13.833Z,98759.19
2022-08-29T08:29:18.509Z,98768.75
2022-08-29T08:30:21.876Z,98760.94
2022-08-29T08:31:29.723Z,98768.75
2022-08-29T08:32:33.198Z,98769.66
2022-08-29T08:33:39.080Z,98761.78
2022-08-29T08:34:43.704Z,98761.63
2022-08-29T08:35:47.926Z,98759.56
2022-08-29T08:36:51.071Z,98758.81
2022-08-29T08:37:55.209Z,98768.41
2022-08-29T08:39:00.723Z,98763.47
2022-08-29T08:40:04.602Z,98774.09
2022-08-29T08:41:14.638Z,98773.28
2022-08-29T08:42:24.936Z,98768.03
2022-08-29T08:43:39.796Z,98764.19
2022-08-29T08:45:05.700Z,98767.47
2022-08-29T08:46:08.979Z,98760.59
2022-08-29T08:47:15.823Z,98767.34
2022-08-29T08:48:21.649Z,98762.22
2022-08-29T08:49:31.819Z,98768.72
2022-08-29T08:50:44.892Z,98770.56
2022-08-29T08:51:51.916Z,98771.56
2022-08-29T08:52:59.008Z,98778.88
2022-08-29T08:54:06.859Z,98771.19
2022-08-29T08:55:16.960Z,98770.50
2022-08-29T08:56:27.476Z,98773.97
2022-08-29T08:57:36.036Z,98768.63
2022-08-29T08:58:47.049Z,98770.63
2022-08-29T08:59:54.808Z,98764.53
2022-08-29T09:01:01.007Z,98770.50
2022-08-29T09:02:12.924Z,98777.13
2022-08-29T09:03:34.806Z,98769.56
2022-08-29T09:04:53.229Z,98773.19
2022-08-29T09:06:10.747Z,98768.16
2022-08-29T09:07:33.075Z,98772.81
2022-08-29T09:08:44.838Z,98773.19
2022-08-29T09:09:58.881Z,98767.78
2022-08-29T09:11:03.703Z,98766.59
2022-08-29T09:12:17.489Z,98775.41
2022-08-29T09:13:32.316Z,98768.19
2022-08-29T09:14:47.329Z,98769.66
2022-08-29T09:15:54.257Z,98770.06
2022-08-29T09:16:59.705Z,98775.72
2022-08-29T09:18:07.007Z,98766.44
2022-08-29T09:19:17.246Z,98769.97
2022-08-29T09:20:22.778Z,98776.06
2022-08-29T09:21:44.151Z,98773.44
2022-08-29T09:22:57.537Z,98766.47
2022-08-29T09:24:00.730Z,98761.56
2022-08-29T09:25:07.080Z,98772.53
2022-08-29T09:26:11.228Z,98771.47
2022-08-29T09:27:18.951Z,98763.94
2022-08-29T09:28:23.335Z,98762.41
2022-08-29T09:29:29.560Z,98759.75
2022-08-29T09:30:34.759Z,98768.47
2022-08-29T09:31:37.948Z,98768.06
2022-08-29T09:32:54.691Z,98768.28
2022-08-29T09:34:00.528Z,98766.59
2022-08-29T09:35:20.431Z,98762.56
2022-08-29T09:36:42.116Z,98766.81
2022-08-29T09:37:57.737Z,98767.06
2022-08-29T09:39:15.878Z,98766.53
2022-08-29T09:40:19.337Z,98768.16
2022-08-29T09:41:30.850Z,98754.81
2022-08-29T09:42:36.136Z,98754.69
2022-08-29T09:43:52.640Z,98750.91
2022-08-29T09:44:57.349Z,98757.06
2022-08-29T09:46:17.788Z,98760.13
2022-08-29T09:47:23.975Z,98760.34
2022-08-29T09:48:29.171Z,98746.53
2022-08-29T09:49:35.594Z,98743.63
2022-08-29T09:50:38.789Z,98746.88
2022-08-29T09:51:45.937Z,98759.28
2022-08-29T09:52:54.383Z,98752.13
2022-08-29T09:54:12.810Z,98755.38
2022-08-29T09:55:31.053Z,98749.69
2022-08-29T09:56:36.650Z,98753.56
2022-08-29T09:57:40.876Z,98761.19
2022-08-29T09:58:44.078Z,98760.41
2022-08-29T09:59:51.378Z,98766.66
2022-08-29T10:01:01.065Z,98753.38
2022-08-29T10:02:21.009Z,98757.44
2022-08-29T10:03:25.670Z,98762.84
2022-08-29T10:04:39.598Z,98753.63
2022-08-29T10:05:46.206Z,98753.38
2022-08-29T10:06:52.741Z,98749.63
2022-08-29T10:07:58.171Z,98752.53
2022-08-29T10:09:06.656Z,98754.72
2022-08-29T10:10:15.978Z,98761.81
2022-08-29T10:11:23.539Z,98751.44
2022-08-29T10:12:35.331Z,98743.81
2022-08-29T10:13:44.578Z,98751.16
2022-08-29T10:14:53.620Z,98753.13
2022-08-29T10:16:01.446Z,98753.13
2022-08-29T10:17:27.851Z,98755.34
2022-08-29T10:18:43.242Z,98762.44
2022-08-29T10:19:46.649Z,98755.16
2022-08-29T10:20:57.189Z,98758.56
2022-08-29T10:22:12.681Z,98754.28
2022-08-29T10:23:22.384Z,98746.13
2022-08-29T10:24:53.648Z,98747.13
2022-08-29T10:25:59.146Z,98747.34
2022-08-29T10:27:08.768Z,98745.75
2022-08-29T10:28:15.780Z,98750.81
2022-08-29T10:29:29.647Z,98757.34
2022-08-29T10:30:41.778Z,98757.59
2022-08-29T10:31:50.045Z,98752.47
2022-08-29T10:33:08.395Z,98761.38
2022-08-29T10:34:25.918Z,98758.56
2022-08-29T10:35:31.282Z,98763.94
2022-08-29T10:36:37.679Z,98758.75
2022-08-29T10:37:53.708Z,98752.25
2022-08-29T10:39:03.944Z,98752.75
2022-08-29T10:40:11.195Z,98754.13
2022-08-29T10:41:30.599Z,98747.44
2022-08-29T10:42:37.243Z,98744.91
2022-08-29T10:43:43.261Z,98746.78
2022-08-29T10:44:59.192Z,98747.25
2022-08-29T10:46:24.010Z,98750.94
2022-08-29T10:47:32.249Z,98749.13
2022-08-29T10:48:39.707Z,98751.31
2022-08-29T10:49:53.247Z,98744.88
2022-08-29T10:51:17.917Z,98750.88
2022-08-29T10:52:27.068Z,98765.00
2022-08-29T10:53:36.674Z,98749.88
2022-08-29T10:54:54.762Z,98754.56
2022-08-29T10:56:06.667Z,98756.94
2022-08-29T10:57:10.779Z,98759.53
2022-08-29T10:58:22.554Z,98764.03
2022-08-29T10:59:32.169Z,98758.38
2022-08-29T11:00:40.897Z,98762.75
2022-08-29T11:01:48.100Z,98755.66
2022-08-29T11:02:59.237Z,98764.22
2022-08-29T11:04:17.498Z,98772.41
2022-08-29T11:05:23.789Z,98765.09
2022-08-29T11:06:30.720Z,98765.97
2022-08-29T11:07:36.851Z,98769.31
2022-08-29T11:08:45.968Z,98770.91
2022-08-29T11:09:52.870Z,98768.69
2022-08-29T11:10:57.236Z,98768.53
2022-08-29T11:12:07.656Z,98769.50
2022-08-29T11:13:14.020Z,98766.28
2022-08-29T11:14:22.569Z,98771.00
2022-08-29T11:15:28.887Z,98766.91
2022-08-29T11:16:37.815Z,98761.28
2022-08-29T11:17:42.758Z,98767.53
2022-08-29T11:18:51.647Z,98757.84
2022-08-29T11:20:02.378Z,98760.19
2022-08-29T11:21:15.004Z,98758.81
2022-08-29T11:22:21.291Z,98753.69
2022-08-29T11:23:32.500Z,98750.69
2022-08-29T11:24:38.109Z,98749.88
2022-08-29T11:25:43.420Z,98748.06
2022-08-29T11:26:55.331Z,98749.56
2022-08-29T11:28:05.690Z,98755.38
2022-08-29T11:29:17.747Z,98749.94
2022-08-29T11:30:24.969Z,98745.00
2022-08-29T11:31:40.040Z,98749.19
2022-08-29T11:32:52.010Z,98752.56
2022-08-29T11:34:00.498Z,98743.22
2022-08-29T11:35:11.318Z,98747.03
2022-08-29T11:36:39.337Z,98737.00
2022-08-29T11:38:04.096Z,98739.31
2022-08-29T11:39:35.706Z,98740.78
2022-08-29T11:42:51.014Z,98742.06
2022-08-29T11:43:59.375Z,98746.16
2022-08-29T11:45:02.893Z,98747.81
2022-08-29T11:46:08.748Z,98744.88
2022-08-29T11:47:41.635Z,98748.19
2022-08-29T11:48:46.760Z,98752.25
2022-08-29T11:49:52.678Z,98747.66
2022-08-29T11:52:31.343Z,98736.81
2022-08-29T11:53:35.927Z,98743.56
2022-08-29T11:55:16.027Z,98736.56
2022-08-29T11:56:28.043Z,98739.81
2022-08-29T11:57:53.507Z,98736.84
2022-08-29T11:58:59.967Z,98748.75
2022-08-29T12:00:05.129Z,98739.28
2022-08-29T12:01:14.211Z,98740.38
2022-08-29T12:02:40.566Z,98741.19
2022-08-29T12:03:47.021Z,98737.69
2022-08-29T12:04:57.927Z,98730.34
2022-08-29T12:06:02.549Z,98727.63
2022-08-29T12:07:09.508Z,98732.72
2022-08-29T12:08:36.425Z,98729.22
2022-08-29T12:09:46.564Z,98726.31
2022-08-29T12:10:54.210Z,98738.47
2022-08-29T12:12:21.755Z,98735.25
2022-08-29T12:14:01.403Z,98730.38
2022-08-29T12:15:47.753Z,98741.47
2022-08-29T12:16:53.659Z,98734.16
2022-08-29T12:18:02.365Z,98735.25
2022-08-29T12:19:06.975Z,98739.84
2022-08-29T12:20:42.139Z,98738.47
2022-08-29T12:21:48.867Z,98728.47
2022-08-29T12:22:59.559Z,98745.22
2022-08-29T12:24:03.168Z,98747.09
2022-08-29T12:25:30.230Z,98735.94
2022-08-29T12:26:45.577Z,98737.00
2022-08-29T12:28:03.980Z,98739.75
2022-08-29T12:29:19.472Z,98738.38
2022-08-29T12:30:23.358Z,98744.03
2022-08-29T12:31:56.325Z,98737.84
2022-08-29T12:33:15.263Z,98744.84
2022-08-29T12:34:28.299Z,98740.25
2022-08-29T12:36:02.646Z,98735.66
2022-08-29T12:37:41.828Z,98737.84
2022-08-29T12:38:55.098Z,98733.19
2022-08-29T12:40:21.541Z,98734.91
2022-08-29T12:41:36.268Z,98730.97
2022-08-29T12:42:49.949Z,98732.38
2022-08-29T12:43:59.072Z,98736.00
2022-08-29T12:45:05.529Z,98726.47
2022-08-29T12:46:14.212Z,98731.28
2022-08-29T12:47:24.682Z,98743.94
2022-08-29T12:48:33.598Z,98727.50
2022-08-29T12:49:42.809Z,98725.50
2022-08-29T12:50:49.076Z,98728.91
2022-08-29T12:51:58.564Z,98729.81
2022-08-29T12:53:04.719Z,98730.59
2022-08-29T12:54:09.038Z,98730.81
2022-08-29T12:55:23.015Z,98724.00
2022-08-29T12:56:34.148Z,98728.19
2022-08-29T12:57:38.817Z,98724.22
2022-08-29T12:58:45.032Z,98723.69
2022-08-29T12:59:52.166Z,98733.31
2022-08-29T13:00:55.776Z,98724.28
2022-08-29T13:02:01.009Z,98725.72
2022-08-29T13:03:09.591Z,98728.97
2022-08-29T13:04:22.240Z,98720.84
2022-08-29T13:05:29.060Z,98725.69
2022-08-29T13:06:34.767Z,98730.50
2022-08-29T13:07:40.130Z,98725.88
2022-08-29T13:08:43.511Z,98729.19
2022-08-29T13:09:53.195Z,98723.00
2022-08-29T13:10:58.109Z,98720.03
2022-08-29T13:12:12.758Z,98726.75
2022-08-29T13:13:21.099Z,98729.72
2022-08-29T13:14:24.321Z,98725.94
2022-08-29T13:15:32.945Z,98722.72
2022-08-29T13:16:38.071Z,98718.97
2022-08-29T13:17:43.829Z,98722.78
2022-08-29T13:19:00.654Z,98722.19
2022-08-29T13:20:46.291Z,98715.72
2022-08-29T13:21:50.506Z,98721.34